sensor_id;sensor_type;location;lat;lon;timestamp;pressure;altitude;pressure_sealevel;temperature;humidity
21980;BME280;11154;48.558;9.234;2023-03-22T00:00:06;97363.34;;;14.57;72.53
21980;BME280;11154;48.558;9.234;2023-03-22T00:02:11;97358.41;;;14.54;71.87
21980;BME280;11154;48.558;9.234;2023-03-22T00:04:14;97354.69;;;14.55;71.72
21980;BME280;11154;48.558;9.234;2023-03-22T00:06:16;97367.44;;;14.53;71.44
21980;BME280;11154;48.558;9.234;2023-03-22T00:08:18;97370.47;;;14.50;71.59
21980;BME280;11154;48.558;9.234;2023-03-22T00:10:20;97372.69;;;14.46;71.23
21980;BME280;11154;48.558;9.234;2023-03-22T00:12:21;97366.91;;;14.43;71.92
21980;BME280;11154;48.558;9.234;2023-03-22T00:14:23;97375.31;;;14.40;71.90
21980;BME280;11154;48.558;9.234;2023-03-22T00:16:25;97368.50;;;14.38;71.67
21980;BME280;11154;48.558;9.234;2023-03-22T00:18:27;97380.00;;;14.38;71.20
21980;BME280;11154;48.558;9.234;2023-03-22T00:20:30;97376.72;;;14.36;71.27
21980;BME280;11154;48.558;9.234;2023-03-22T00:22:33;97371.72;;;14.33;71.23
21980;BME280;11154;48.558;9.234;2023-03-22T00:24:34;97381.16;;;14.29;71.22
21980;BME280;11154;48.558;9.234;2023-03-22T00:26:36;97368.16;;;14.26;71.40
21980;BME280;11154;48.558;9.234;2023-03-22T00:28:38;97361.06;;;14.19;71.53
21980;BME280;11154;48.558;9.234;2023-03-22T00:30:40;97369.66;;;14.14;71.96
21980;BME280;11154;48.558;9.234;2023-03-22T00:32:42;97362.84;;;14.12;72.14
21980;BME280;11154;48.558;9.234;2023-03-22T00:34:43;97364.38;;;14.06;72.16
21980;BME280;11154;48.558;9.234;2023-03-22T00:36:46;97368.03;;;14.05;72.38
21980;BME280;11154;48.558;9.234;2023-03-22T00:38:48;97366.41;;;14.04;72.40
21980;BME280;11154;48.558;9.234;2023-03-22T00:40:51;97364.09;;;14.01;72.54
21980;BME280;11154;48.558;9.234;2023-03-22T00:42:52;97368.78;;;13.99;72.79
21980;BME280;11154;48.558;9.234;2023-03-22T00:44:54;97357.09;;;14.00;73.04
21980;BME280;11154;48.558;9.234;2023-03-22T00:46:56;97350.72;;;14.01;72.98
21980;BME280;11154;48.558;9.234;2023-03-22T00:48:58;97352.41;;;14.02;72.82
21980;BME280;11154;48.558;9.234;2023-03-22T00:50:59;97347.06;;;14.02;72.87
21980;BME280;11154;48.558;9.234;2023-03-22T00:53:03;97340.69;;;14.03;73.15
21980;BME280;11154;48.558;9.234;2023-03-22T00:55:06;97339.84;;;14.03;72.87
21980;BME280;11154;48.558;9.234;2023-03-22T00:57:07;97339.84;;;14.03;72.93
21980;BME280;11154;48.558;9.234;2023-03-22T00:59:09;97338.00;;;14.03;72.84
21980;BME280;11154;48.558;9.234;2023-03-22T01:01:10;97331.81;;;14.03;72.64
21980;BME280;11154;48.558;9.234;2023-03-22T01:03:13;97337.38;;;14.01;72.56
21980;BME280;11154;48.558;9.234;2023-03-22T01:05:15;97335.09;;;13.98;72.12
21980;BME280;11154;48.558;9.234;2023-03-22T01:07:17;97332.13;;;13.93;72.32
21980;BME280;11154;48.558;9.234;2023-03-22T01:09:22;97337.00;;;13.90;72.90
21980;BME280;11154;48.558;9.234;2023-03-22T01:11:24;97318.03;;;13.85;73.01
21980;BME280;11154;48.558;9.234;2023-03-22T01:13:26;97323.94;;;13.80;73.39
21980;BME280;11154;48.558;9.234;2023-03-22T01:15:28;97327.81;;;13.78;73.96
21980;BME280;11154;48.558;9.234;2023-03-22T01:17:30;97328.81;;;13.77;74.05
21980;BME280;11154;48.558;9.234;2023-03-22T01:19:31;97325.53;;;13.75;73.97
21980;BME280;11154;48.558;9.234;2023-03-22T01:21:33;97323.41;;;13.70;73.37
21980;BME280;11154;48.558;9.234;2023-03-22T01:23:35;97331.16;;;13.66;73.20
21980;BME280;11154;48.558;9.234;2023-03-22T01:25:38;97326.81;;;13.65;73.07
21980;BME280;11154;48.558;9.234;2023-03-22T01:27:40;97318.16;;;13.63;73.06
21980;BME280;11154;48.558;9.234;2023-03-22T01:29:42;97322.56;;;13.56;72.20
21980;BME280;11154;48.558;9.234;2023-03-22T01:31:43;97313.94;;;13.54;72.76
21980;BME280;11154;48.558;9.234;2023-03-22T01:33:45;97307.75;;;13.53;72.76
21980;BME280;11154;48.558;9.234;2023-03-22T01:35:46;97304.25;;;13.53;73.27
21980;BME280;11154;48.558;9.234;2023-03-22T01:37:48;97306.28;;;13.51;72.24
21980;BME280;11154;48.558;9.234;2023-03-22T01:39:50;97315.28;;;13.50;72.63
21980;BME280;11154;48.558;9.234;2023-03-22T01:41:53;97309.28;;;13.48;71.89
21980;BME280;11154;48.558;9.234;2023-03-22T01:44:12;97301.28;;;13.48;72.11
21980;BME280;11154;48.558;9.234;2023-03-22T01:46:13;97300.66;;;13.46;71.68
21980;BME280;11154;48.558;9.234;2023-03-22T01:48:19;97308.47;;;13.47;73.30
21980;BME280;11154;48.558;9.234;2023-03-22T01:50:23;97299.81;;;13.45;73.15
21980;BME280;11154;48.558;9.234;2023-03-22T01:52:26;97303.31;;;13.46;76.95
21980;BME280;11154;48.558;9.234;2023-03-22T01:54:31;97291.53;;;13.40;76.38
21980;BME280;11154;48.558;9.234;2023-03-22T01:56:36;97300.47;;;13.33;73.89
21980;BME280;11154;48.558;9.234;2023-03-22T01:58:41;97291.81;;;13.31;73.77
21980;BME280;11154;48.558;9.234;2023-03-22T02:00:44;97249.97;;;12.58;76.24
21980;BME280;11154;48.558;9.234;2023-03-22T02:02:47;97257.09;;;11.76;82.03
21980;BME280;11154;48.558;9.234;2023-03-22T02:04:50;97257.06;;;11.38;84.68
21980;BME280;11154;48.558;9.234;2023-03-22T02:06:57;97254.34;;;11.07;86.39
21980;BME280;11154;48.558;9.234;2023-03-22T02:08:59;97249.22;;;10.98;86.92
21980;BME280;11154;48.558;9.234;2023-03-22T02:11:02;97249.59;;;10.79;87.30
21980;BME280;11154;48.558;9.234;2023-03-22T02:13:16;97245.13;;;10.64;88.51
21980;BME280;11154;48.558;9.234;2023-03-22T02:15:25;97243.81;;;10.60;89.46
21980;BME280;11154;48.558;9.234;2023-03-22T02:17:33;97244.63;;;10.52;90.88
21980;BME280;11154;48.558;9.234;2023-03-22T02:19:59;97250.81;;;10.45;92.51
21980;BME280;11154;48.558;9.234;2023-03-22T02:22:30;97238.50;;;10.44;94.09
21980;BME280;11154;48.558;9.234;2023-03-22T02:27:46;97231.53;;;10.43;95.15
21980;BME280;11154;48.558;9.234;2023-03-22T02:29:59;97244.19;;;10.41;95.21
21980;BME280;11154;48.558;9.234;2023-03-22T02:32:28;97233.72;;;10.31;94.16
21980;BME280;11154;48.558;9.234;2023-03-22T02:35:03;97233.03;;;10.21;95.17
21980;BME280;11154;48.558;9.234;2023-03-22T02:37:41;97225.25;;;10.28;94.56
21980;BME280;11154;48.558;9.234;2023-03-22T02:39:55;97236.19;;;10.25;94.94
21980;BME280;11154;48.558;9.234;2023-03-22T02:42:21;97238.34;;;10.21;95.12
21980;BME280;11154;48.558;9.234;2023-03-22T02:44:28;97224.94;;;10.23;95.49
21980;BME280;11154;48.558;9.234;2023-03-22T02:46:41;97222.91;;;10.25;95.56
21980;BME280;11154;48.558;9.234;2023-03-22T02:48:49;97232.91;;;10.23;96.12
21980;BME280;11154;48.558;9.234;2023-03-22T02:50:55;97219.44;;;10.16;96.46
21980;BME280;11154;48.558;9.234;2023-03-22T02:53:03;97231.91;;;10.16;96.79
21980;BME280;11154;48.558;9.234;2023-03-22T02:55:12;97230.72;;;10.10;96.51
21980;BME280;11154;48.558;9.234;2023-03-22T02:57:21;97229.22;;;10.08;95.83
21980;BME280;11154;48.558;9.234;2023-03-22T02:59:24;97223.25;;;10.06;95.99
21980;BME280;11154;48.558;9.234;2023-03-22T03:01:29;97231.50;;;9.95;97.15
21980;BME280;11154;48.558;9.234;2023-03-22T03:03:35;97228.72;;;10.05;96.30
21980;BME280;11154;48.558;9.234;2023-03-22T03:05:41;97233.38;;;10.03;96.14
21980;BME280;11154;48.558;9.234;2023-03-22T03:07:47;97237.84;;;10.02;96.58
21980;BME280;11154;48.558;9.234;2023-03-22T03:09:50;97243.13;;;9.94;97.38
21980;BME280;11154;48.558;9.234;2023-03-22T03:11:53;97233.84;;;9.90;97.20
21980;BME280;11154;48.558;9.234;2023-03-22T03:13:55;97237.13;;;9.76;97.97
21980;BME280;11154;48.558;9.234;2023-03-22T03:15:58;97235.81;;;9.72;98.91
21980;BME280;11154;48.558;9.234;2023-03-22T03:18:12;97219.88;;;9.72;99.15
21980;BME280;11154;48.558;9.234;2023-03-22T03:20:26;97233.16;;;9.72;99.13
21980;BME280;11154;48.558;9.234;2023-03-22T03:22:42;97245.06;;;9.68;99.29
21980;BME280;11154;48.558;9.234;2023-03-22T03:24:56;97235.09;;;9.62;98.55
21980;BME280;11154;48.558;9.234;2023-03-22T03:27:05;97245.03;;;9.60;98.21
21980;BME280;11154;48.558;9.234;2023-03-22T03:29:10;97241.56;;;9.60;99.61
21980;BME280;11154;48.558;9.234;2023-03-22T03:31:26;97241.06;;;9.56;99.67
21980;BME280;11154;48.558;9.234;2023-03-22T03:33:32;97242.69;;;9.49;99.68
21980;BME280;11154;48.558;9.234;2023-03-22T03:35:38;97242.03;;;9.47;100.00
21980;BME280;11154;48.558;9.234;2023-03-22T03:37:44;97241.38;;;9.45;100.00
21980;BME280;11154;48.558;9.234;2023-03-22T03:39:53;97247.00;;;9.50;100.00
21980;BME280;11154;48.558;9.234;2023-03-22T03:41:56;97249.50;;;9.52;100.00
21980;BME280;11154;48.558;9.234;2023-03-22T03:44:01;97246.84;;;9.52;100.00
21980;BME280;11154;48.558;9.234;2023-03-22T03:46:04;97252.00;;;9.53;100.00
21980;BME280;11154;48.558;9.234;2023-03-22T03:48:08;97255.97;;;9.49;100.00
21980;BME280;11154;48.558;9.234;2023-03-22T03:50:13;97261.91;;;9.43;99.44
21980;BME280;11154;48.558;9.234;2023-03-22T03:52:16;97252.09;;;9.28;99.70
21980;BME280;11154;48.558;9.234;2023-03-22T03:54:18;97265.69;;;9.33;99.86
21980;BME280;11154;48.558;9.234;2023-03-22T03:56:20;97265.03;;;9.31;99.50
21980;BME280;11154;48.558;9.234;2023-03-22T03:58:22;97261.03;;;9.27;98.85
21980;BME280;11154;48.558;9.234;2023-03-22T04:00:25;97268.00;;;9.28;98.56
21980;BME280;11154;48.558;9.234;2023-03-22T04:02:27;97304.31;;;9.28;98.17
21980;BME280;11154;48.558;9.234;2023-03-22T04:04:28;97309.59;;;10.10;95.25
21980;BME280;11154;48.558;9.234;2023-03-22T04:06:30;97303.16;;;10.44;91.66
21980;BME280;11154;48.558;9.234;2023-03-22T04:08:33;97304.81;;;10.69;89.50
21980;BME280;11154;48.558;9.234;2023-03-22T04:10:35;97304.28;;;10.89;88.00
21980;BME280;11154;48.558;9.234;2023-03-22T04:12:37;97299.75;;;11.06;86.94
21980;BME280;11154;48.558;9.234;2023-03-22T04:14:38;97303.38;;;11.21;86.25
21980;BME280;11154;48.558;9.234;2023-03-22T04:16:42;97295.84;;;11.32;84.82
21980;BME280;11154;48.558;9.234;2023-03-22T04:18:44;97296.00;;;11.39;83.81
21980;BME280;11154;48.558;9.234;2023-03-22T04:20:46;97306.44;;;11.48;83.52
21980;BME280;11154;48.558;9.234;2023-03-22T04:22:48;97299.28;;;11.56;82.74
21980;BME280;11154;48.558;9.234;2023-03-22T04:24:51;97301.75;;;11.66;81.57
21980;BME280;11154;48.558;9.234;2023-03-22T04:26:53;97300.38;;;11.70;81.17
21980;BME280;11154;48.558;9.234;2023-03-22T04:28:56;97307.03;;;11.74;81.45
21980;BME280;11154;48.558;9.234;2023-03-22T04:30:58;97290.88;;;11.75;81.15
21980;BME280;11154;48.558;9.234;2023-03-22T04:33:04;97295.50;;;11.81;81.46
21980;BME280;11154;48.558;9.234;2023-03-22T04:35:06;97296.66;;;11.87;80.37
21980;BME280;11154;48.558;9.234;2023-03-22T04:37:08;97295.47;;;11.89;80.65
21980;BME280;11154;48.558;9.234;2023-03-22T04:39:10;97291.81;;;11.90;80.24
21980;BME280;11154;48.558;9.234;2023-03-22T04:41:12;97291.63;;;11.92;80.20
21980;BME280;11154;48.558;9.234;2023-03-22T04:43:14;97293.47;;;11.91;80.38
21980;BME280;11154;48.558;9.234;2023-03-22T04:45:18;97282.81;;;11.91;79.50
21980;BME280;11154;48.558;9.234;2023-03-22T04:47:20;97288.78;;;11.93;79.43
21980;BME280;11154;48.558;9.234;2023-03-22T04:49:23;97287.44;;;11.97;78.34
21980;BME280;11154;48.558;9.234;2023-03-22T04:51:26;97285.78;;;11.96;77.90
21980;BME280;11154;48.558;9.234;2023-03-22T04:53:29;97291.91;;;11.97;77.97
21980;BME280;11154;48.558;9.234;2023-03-22T04:55:31;97289.44;;;11.95;77.78
21980;BME280;11154;48.558;9.234;2023-03-22T04:57:33;97285.63;;;11.90;77.16
21980;BME280;11154;48.558;9.234;2023-03-22T04:59:35;97289.66;;;11.86;76.49
21980;BME280;11154;48.558;9.234;2023-03-22T05:01:36;97283.50;;;11.85;77.45
21980;BME280;11154;48.558;9.234;2023-03-22T05:03:39;97281.38;;;11.81;76.42
21980;BME280;11154;48.558;9.234;2023-03-22T05:05:50;97279.22;;;11.76;76.75
21980;BME280;11154;48.558;9.234;2023-03-22T05:07:52;97271.75;;;11.72;77.49
21980;BME280;11154;48.558;9.234;2023-03-22T05:09:53;97277.06;;;11.72;78.30
21980;BME280;11154;48.558;9.234;2023-03-22T05:11:55;97276.41;;;11.70;78.26
21980;BME280;11154;48.558;9.234;2023-03-22T05:13:56;97269.78;;;11.66;77.48
21980;BME280;11154;48.558;9.234;2023-03-22T05:15:58;97264.16;;;11.61;77.76
21980;BME280;11154;48.558;9.234;2023-03-22T05:18:00;97262.69;;;11.58;78.34
21980;BME280;11154;48.558;9.234;2023-03-22T05:20:02;97264.34;;;11.59;77.82
21980;BME280;11154;48.558;9.234;2023-03-22T05:22:10;97262.50;;;11.60;77.62
21980;BME280;11154;48.558;9.234;2023-03-22T05:24:13;97254.84;;;11.57;78.14
21980;BME280;11154;48.558;9.234;2023-03-22T05:26:15;97258.88;;;11.53;76.75
21980;BME280;11154;48.558;9.234;2023-03-22T05:28:20;97256.53;;;11.50;76.46
21980;BME280;11154;48.558;9.234;2023-03-22T05:30:22;97257.34;;;11.50;76.35
21980;BME280;11154;48.558;9.234;2023-03-22T05:32:23;97257.22;;;11.44;75.98
21980;BME280;11154;48.558;9.234;2023-03-22T05:34:28;97257.88;;;11.38;73.50
21980;BME280;11154;48.558;9.234;2023-03-22T05:36:34;97257.59;;;11.33;74.85
21980;BME280;11154;48.558;9.234;2023-03-22T05:38:38;97247.63;;;11.27;76.38
21980;BME280;11154;48.558;9.234;2023-03-22T05:40:40;97251.47;;;11.25;77.00
21980;BME280;11154;48.558;9.234;2023-03-22T05:42:42;97266.28;;;11.19;77.35
21980;BME280;11154;48.558;9.234;2023-03-22T05:44:44;97257.81;;;11.16;78.66
21980;BME280;11154;48.558;9.234;2023-03-22T05:46:45;97262.97;;;11.17;78.50
21980;BME280;11154;48.558;9.234;2023-03-22T05:48:47;97254.31;;;11.15;77.71
21980;BME280;11154;48.558;9.234;2023-03-22T05:50:49;97251.00;;;11.13;78.08
21980;BME280;11154;48.558;9.234;2023-03-22T05:52:50;97245.13;;;11.34;84.94
21980;BME280;11154;48.558;9.234;2023-03-22T05:54:54;97243.94;;;11.36;85.03
21980;BME280;11154;48.558;9.234;2023-03-22T05:56:56;97243.63;;;11.31;82.18
21980;BME280;11154;48.558;9.234;2023-03-22T05:58:57;97246.97;;;11.25;80.62
21980;BME280;11154;48.558;9.234;2023-03-22T06:01:03;97237.66;;;11.21;78.84
21980;BME280;11154;48.558;9.234;2023-03-22T06:03:05;97247.31;;;11.22;76.48
21980;BME280;11154;48.558;9.234;2023-03-22T06:05:08;97240.50;;;11.28;75.24
21980;BME280;11154;48.558;9.234;2023-03-22T06:07:10;97245.13;;;11.34;75.96
21980;BME280;11154;48.558;9.234;2023-03-22T06:09:12;97245.13;;;11.34;77.32
21980;BME280;11154;48.558;9.234;2023-03-22T06:11:16;97241.78;;;11.32;76.71
21980;BME280;11154;48.558;9.234;2023-03-22T06:13:18;97242.75;;;11.39;77.58
21980;BME280;11154;48.558;9.234;2023-03-22T06:15:20;97244.28;;;11.33;74.29
21980;BME280;11154;48.558;9.234;2023-03-22T06:17:22;97251.25;;;11.34;76.07
21980;BME280;11154;48.558;9.234;2023-03-22T06:19:24;97244.28;;;11.33;76.73
21980;BME280;11154;48.558;9.234;2023-03-22T06:21:25;97249.47;;;11.27;76.51
21980;BME280;11154;48.558;9.234;2023-03-22T06:23:27;97255.13;;;11.24;76.13
21980;BME280;11154;48.558;9.234;2023-03-22T06:25:29;97250.66;;;11.24;75.37
21980;BME280;11154;48.558;9.234;2023-03-22T06:27:32;97253.13;;;11.26;76.16
21980;BME280;11154;48.558;9.234;2023-03-22T06:29:34;97244.28;;;11.25;76.70
21980;BME280;11154;48.558;9.234;2023-03-22T06:31:36;97245.63;;;11.29;77.32
21980;BME280;11154;48.558;9.234;2023-03-22T06:33:37;97253.91;;;11.34;76.49
21980;BME280;11154;48.558;9.234;2023-03-22T06:35:39;97252.56;;;11.38;76.91
21980;BME280;11154;48.558;9.234;2023-03-22T06:37:41;97260.19;;;11.49;76.90
21980;BME280;11154;48.558;9.234;2023-03-22T06:39:42;97256.50;;;11.58;77.22
21980;BME280;11154;48.558;9.234;2023-03-22T06:41:44;97259.66;;;11.61;76.88
21980;BME280;11154;48.558;9.234;2023-03-22T06:43:48;97260.53;;;11.84;82.66
21980;BME280;11154;48.558;9.234;2023-03-22T06:45:49;97268.69;;;11.83;82.26
21980;BME280;11154;48.558;9.234;2023-03-22T06:47:51;97276.41;;;11.70;79.74
21980;BME280;11154;48.558;9.234;2023-03-22T06:49:52;97275.47;;;11.63;78.82
21980;BME280;11154;48.558;9.234;2023-03-22T06:51:54;97281.47;;;11.57;78.25
21980;BME280;11154;48.558;9.234;2023-03-22T06:53:56;97275.50;;;11.55;78.23
21980;BME280;11154;48.558;9.234;2023-03-22T06:55:57;97283.78;;;11.68;76.15
21980;BME280;11154;48.558;9.234;2023-03-22T06:57:59;97277.81;;;11.88;73.35
21980;BME280;11154;48.558;9.234;2023-03-22T07:00:03;97287.91;;;12.01;73.19
21980;BME280;11154;48.558;9.234;2023-03-22T07:02:05;97277.03;;;12.10;74.25
21980;BME280;11154;48.558;9.234;2023-03-22T07:04:07;97277.13;;;12.17;75.39
21980;BME280;11154;48.558;9.234;2023-03-22T07:06:09;97271.75;;;12.24;75.97
21980;BME280;11154;48.558;9.234;2023-03-22T07:08:11;97274.72;;;12.29;76.38
21980;BME280;11154;48.558;9.234;2023-03-22T07:10:12;97280.00;;;12.37;76.86
21980;BME280;11154;48.558;9.234;2023-03-22T07:12:14;97273.75;;;12.45;76.48
21980;BME280;11154;48.558;9.234;2023-03-22T07:14:16;97278.56;;;12.49;76.38
21980;BME280;11154;48.558;9.234;2023-03-22T07:16:19;97272.16;;;12.58;77.91
21980;BME280;11154;48.558;9.234;2023-03-22T07:18:20;97274.66;;;12.74;77.64
21980;BME280;11154;48.558;9.234;2023-03-22T07:20:22;97273.47;;;12.77;76.23
21980;BME280;11154;48.558;9.234;2023-03-22T07:22:24;97266.41;;;12.84;77.23
21980;BME280;11154;48.558;9.234;2023-03-22T07:24:26;97269.22;;;12.90;76.49
21980;BME280;11154;48.558;9.234;2023-03-22T07:26:28;97276.50;;;12.96;77.15
21980;BME280;11154;48.558;9.234;2023-03-22T07:28:30;97275.59;;;13.03;77.05
21980;BME280;11154;48.558;9.234;2023-03-22T07:30:32;97269.72;;;13.08;77.99
21980;BME280;11154;48.558;9.234;2023-03-22T07:32:38;97265.66;;;13.12;77.74
21980;BME280;11154;48.558;9.234;2023-03-22T07:34:40;97272.25;;;13.16;77.24
21980;BME280;11154;48.558;9.234;2023-03-22T07:36:41;97278.00;;;13.27;79.26
21980;BME280;11154;48.558;9.234;2023-03-22T07:38:43;97279.47;;;13.30;77.75
21980;BME280;11154;48.558;9.234;2023-03-22T07:40:44;97285.09;;;13.35;77.59
21980;BME280;11154;48.558;9.234;2023-03-22T07:42:47;97284.97;;;13.43;78.26
21980;BME280;11154;48.558;9.234;2023-03-22T07:44:48;97284.63;;;13.46;76.73
21980;BME280;11154;48.558;9.234;2023-03-22T07:46:50;97282.69;;;13.54;77.70
21980;BME280;11154;48.558;9.234;2023-03-22T07:48:53;97274.75;;;13.61;77.93
21980;BME280;11154;48.558;9.234;2023-03-22T07:50:55;97276.50;;;13.68;77.76
21980;BME280;11154;48.558;9.234;2023-03-22T07:52:56;97280.25;;;13.73;76.06
21980;BME280;11154;48.558;9.234;2023-03-22T07:54:58;97278.34;;;13.82;76.45
21980;BME280;11154;48.558;9.234;2023-03-22T07:57:00;97280.06;;;13.89;76.65
21980;BME280;11154;48.558;9.234;2023-03-22T07:59:01;97281.78;;;13.97;75.52
21980;BME280;11154;48.558;9.234;2023-03-22T08:01:04;97276.13;;;14.06;75.33
21980;BME280;11154;48.558;9.234;2023-03-22T08:03:09;97271.06;;;14.11;73.41
21980;BME280;11154;48.558;9.234;2023-03-22T08:05:13;97280.28;;;14.23;74.61
21980;BME280;11154;48.558;9.234;2023-03-22T08:07:15;97273.31;;;14.29;73.21
21980;BME280;11154;48.558;9.234;2023-03-22T08:09:17;97276.25;;;14.34;71.44
21980;BME280;11154;48.558;9.234;2023-03-22T08:11:19;97272.84;;;14.40;70.18
21980;BME280;11154;48.558;9.234;2023-03-22T08:13:21;97269.19;;;14.47;70.14
21980;BME280;11154;48.558;9.234;2023-03-22T08:15:22;97270.09;;;14.54;67.63
21980;BME280;11154;48.558;9.234;2023-03-22T08:17:24;97281.50;;;14.62;67.21
21980;BME280;11154;48.558;9.234;2023-03-22T08:19:26;97281.16;;;14.72;66.45
21980;BME280;11154;48.558;9.234;2023-03-22T08:21:29;97275.69;;;14.80;65.95
21980;BME280;11154;48.558;9.234;2023-03-22T08:23:33;97275.47;;;14.81;65.27
21980;BME280;11154;48.558;9.234;2023-03-22T08:25:37;97281.91;;;14.87;66.10
21980;BME280;11154;48.558;9.234;2023-03-22T08:27:39;97270.59;;;14.91;66.14
21980;BME280;11154;48.558;9.234;2023-03-22T08:29:41;97281.38;;;14.98;65.07
21980;BME280;11154;48.558;9.234;2023-03-22T08:31:43;97285.94;;;15.04;66.42
21980;BME280;11154;48.558;9.234;2023-03-22T08:33:45;97281.84;;;15.08;63.97
21980;BME280;11154;48.558;9.234;2023-03-22T08:35:46;97281.47;;;15.11;64.25
21980;BME280;11154;48.558;9.234;2023-03-22T08:37:52;97281.34;;;15.18;63.74
21980;BME280;11154;48.558;9.234;2023-03-22T08:39:54;97278.25;;;15.21;66.95
21980;BME280;11154;48.558;9.234;2023-03-22T08:41:55;97274.94;;;15.19;63.09
21980;BME280;11154;48.558;9.234;2023-03-22T08:43:57;97278.94;;;15.30;64.05
21980;BME280;11154;48.558;9.234;2023-03-22T08:45:59;97273.44;;;15.38;63.91
21980;BME280;11154;48.558;9.234;2023-03-22T08:48:02;97275.53;;;15.42;63.42
21980;BME280;11154;48.558;9.234;2023-03-22T08:50:05;97278.44;;;15.47;65.11
21980;BME280;11154;48.558;9.234;2023-03-22T08:52:06;97276.63;;;15.54;63.76
21980;BME280;11154;48.558;9.234;2023-03-22T08:54:10;97270.72;;;15.65;66.22
21980;BME280;11154;48.558;9.234;2023-03-22T08:56:11;97268.47;;;15.69;65.60
21980;BME280;11154;48.558;9.234;2023-03-22T08:58:15;97268.28;;;15.77;63.97
21980;BME280;11154;48.558;9.234;2023-03-22T09:00:19;97266.28;;;15.85;64.37
21980;BME280;11154;48.558;9.234;2023-03-22T09:02:21;97255.59;;;15.91;63.45
21980;BME280;11154;48.558;9.234;2023-03-22T09:04:23;97260.31;;;15.96;63.53
21980;BME280;11154;48.558;9.234;2023-03-22T09:06:25;97248.19;;;16.00;63.33
21980;BME280;11154;48.558;9.234;2023-03-22T09:08:28;97249.41;;;16.04;62.42
21980;BME280;11154;48.558;9.234;2023-03-22T09:10:31;97251.13;;;16.18;63.69
21980;BME280;11154;48.558;9.234;2023-03-22T09:12:33;97246.97;;;16.22;61.09
21980;BME280;11154;48.558;9.234;2023-03-22T09:14:35;97245.81;;;16.31;63.89
21980;BME280;11154;48.558;9.234;2023-03-22T09:16:37;97245.81;;;16.37;63.04
21980;BME280;11154;48.558;9.234;2023-03-22T09:18:39;97243.56;;;16.47;62.89
21980;BME280;11154;48.558;9.234;2023-03-22T09:20:41;97241.69;;;16.48;64.22
21980;BME280;11154;48.558;9.234;2023-03-22T09:22:43;97238.41;;;16.52;62.12
21980;BME280;11154;48.558;9.234;2023-03-22T09:24:45;97238.00;;;16.55;63.03
21980;BME280;11154;48.558;9.234;2023-03-22T09:26:48;97245.00;;;16.56;59.74
21980;BME280;11154;48.558;9.234;2023-03-22T09:28:50;97242.97;;;16.58;64.60
21980;BME280;11154;48.558;9.234;2023-03-22T09:30:52;97247.72;;;16.63;62.76
21980;BME280;11154;48.558;9.234;2023-03-22T09:32:54;97238.03;;;16.68;62.37
21980;BME280;11154;48.558;9.234;2023-03-22T09:34:55;97227.28;;;16.74;61.03
21980;BME280;11154;48.558;9.234;2023-03-22T09:36:57;97230.78;;;16.81;60.92
21980;BME280;11154;48.558;9.234;2023-03-22T09:39:01;97230.97;;;16.86;62.27
21980;BME280;11154;48.558;9.234;2023-03-22T09:41:09;97227.28;;;16.94;59.92
21980;BME280;11154;48.558;9.234;2023-03-22T09:43:14;97223.53;;;17.01;61.90
21980;BME280;11154;48.558;9.234;2023-03-22T09:45:18;97222.28;;;17.04;59.62
21980;BME280;11154;48.558;9.234;2023-03-22T09:47:27;97217.56;;;17.06;59.78
21980;BME280;11154;48.558;9.234;2023-03-22T09:49:34;97214.03;;;17.12;59.03
21980;BME280;11154;48.558;9.234;2023-03-22T09:51:38;97209.47;;;17.19;56.91
21980;BME280;11154;48.558;9.234;2023-03-22T09:53:41;97207.19;;;17.29;59.59
21980;BME280;11154;48.558;9.234;2023-03-22T09:55:47;97203.88;;;17.33;60.04
21980;BME280;11154;48.558;9.234;2023-03-22T09:57:58;97205.31;;;17.36;58.85
21980;BME280;11154;48.558;9.234;2023-03-22T10:00:10;97206.13;;;17.36;57.30
21980;BME280;11154;48.558;9.234;2023-03-22T10:02:30;97195.78;;;17.46;60.43
21980;BME280;11154;48.558;9.234;2023-03-22T10:04:43;97184.59;;;17.49;57.59
21980;BME280;11154;48.558;9.234;2023-03-22T10:06:49;97186.00;;;17.58;57.28
21980;BME280;11154;48.558;9.234;2023-03-22T10:09:05;97184.06;;;17.71;58.74
21980;BME280;11154;48.558;9.234;2023-03-22T10:11:15;97176.63;;;17.80;57.72
21980;BME280;11154;48.558;9.234;2023-03-22T10:13:26;97176.97;;;17.90;57.76
21980;BME280;11154;48.558;9.234;2023-03-22T10:15:34;97175.94;;;17.91;54.84
21980;BME280;11154;48.558;9.234;2023-03-22T10:17:39;97179.41;;;17.98;55.97
21980;BME280;11154;48.558;9.234;2023-03-22T10:19:48;97170.31;;;17.99;54.82
21980;BME280;11154;48.558;9.234;2023-03-22T10:21:54;97172.53;;;18.02;52.14
21980;BME280;11154;48.558;9.234;2023-03-22T10:23:59;97166.53;;;18.06;51.97
21980;BME280;11154;48.558;9.234;2023-03-22T10:26:05;97162.75;;;18.13;52.90
21980;BME280;11154;48.558;9.234;2023-03-22T10:28:18;97163.97;;;18.17;53.81
21980;BME280;11154;48.558;9.234;2023-03-22T10:30:23;97152.38;;;18.23;55.40
21980;BME280;11154;48.558;9.234;2023-03-22T10:32:29;97156.03;;;18.29;53.10
21980;BME280;11154;48.558;9.234;2023-03-22T10:34:32;97145.66;;;18.32;50.24
21980;BME280;11154;48.558;9.234;2023-03-22T10:36:37;97143.97;;;18.38;50.99
21980;BME280;11154;48.558;9.234;2023-03-22T10:38:45;97139.63;;;18.37;49.92
21980;BME280;11154;48.558;9.234;2023-03-22T10:40:48;97139.41;;;18.38;49.02
21980;BME280;11154;48.558;9.234;2023-03-22T10:42:53;97139.34;;;18.45;55.23
21980;BME280;11154;48.558;9.234;2023-03-22T10:44:59;97141.66;;;18.41;50.07
21980;BME280;11154;48.558;9.234;2023-03-22T10:47:02;97146.44;;;18.39;49.53
21980;BME280;11154;48.558;9.234;2023-03-22T10:49:14;97133.13;;;18.44;50.34
21980;BME280;11154;48.558;9.234;2023-03-22T10:51:23;97135.41;;;18.47;47.63
21980;BME280;11154;48.558;9.234;2023-03-22T10:53:32;97128.09;;;18.54;47.55
21980;BME280;11154;48.558;9.234;2023-03-22T10:55:38;97130.50;;;18.62;48.70
21980;BME280;11154;48.558;9.234;2023-03-22T10:57:41;97136.63;;;18.69;48.58
21980;BME280;11154;48.558;9.234;2023-03-22T10:59:45;97128.13;;;18.72;47.85